KPWA/PWA METAR and TAF weather

Enter ICAO airport designator
Station Type Date Time Source
KPWA METAR 2019/02/23 22:53 UTC NOAA

KPWA 232253Z 30022G32KT 10SM FEW030 FEW065 08/00 A2978 RMK AO2 PK WND 29037/2215 PRESRR SLP083 T00830000


Station Type Date Time Source
KPWA Decoded METAR 2019/02/23 22:53 UTC NOAA

WILEY POST, OK, United States (KPWA) 35-32N 97-39W 397M
Feb 23, 2019 - 05:53 PM EST / 2019.02.23 2253 UTC
Wind: from the WNW (300 degrees) at 25 MPH (22 KT) gusting to 37 MPH (32 KT):0
Visibility: 10 mile(s):0
Sky conditions: mostly clear
Temperature: 46.9 F (8.3 C)
Dew Point: 32.0 F (0.0 C)
Relative Humidity: 55%
Pressure (altimeter): 29.78 in. Hg (1008 hPa)
Pressure tendency: rising rapidly
ob: KPWA 232253Z 30022G32KT 10SM FEW030 FEW065 08/00 A2978 RMK AO2 PK WND 29037/2215 PRESRR SLP083 T00830000
cycle: 23

Station Type Date Time Source
KPWA TAF UTC NOAA

Error!


Example: see airport list